Terminal Aerodrome Forecast
Issued by NWS

Home | Current Version | Previous Version | Graphics & Text | Print | Product List | Glossary On
Versions: 1 2 3 4 5 6 7 8 9 10 11 12 13 14 15 16
000
FTUS43 KGRB 231734
TAFRHI
TAF
KRHI 231734Z 2318/2418 20011G17KT P6SM FEW045 SCT250
     FM240000 17007KT P6SM BKN200
     FM240800 16007KT 6SM BR BKN009 OVC015
      TEMPO 2409/2413 3SM SHRA OVC006
     FM241300 17007KT 4SM -SHRA BR OVC006
     FM241700 22008KT 6SM BR BKN009=

USA.gov is the U.S. government's official web portal to all federal, state and local government web resources and services.